createdAt,value
2023-08-24T00:00:08.352Z,25.69
2023-08-24T00:01:08.349Z,25.69
2023-08-24T00:02:08.330Z,25.69
2023-08-24T00:03:08.333Z,25.69
2023-08-24T00:04:08.300Z,25.69
2023-08-24T00:05:08.300Z,25.69
2023-08-24T00:06:08.278Z,25.68
2023-08-24T00:07:08.268Z,25.68
2023-08-24T00:08:08.248Z,25.67
2023-08-24T00:09:08.239Z,25.66
2023-08-24T00:10:08.220Z,25.65
2023-08-24T00:11:08.227Z,25.65
2023-08-24T00:12:08.217Z,25.64
2023-08-24T00:13:08.194Z,25.63
2023-08-24T00:14:08.166Z,25.62
2023-08-24T00:15:08.169Z,25.62
2023-08-24T00:16:08.214Z,25.62
2023-08-24T00:17:08.146Z,25.62
2023-08-24T00:18:08.183Z,25.62
2023-08-24T00:19:08.112Z,25.63
2023-08-24T00:20:08.093Z,25.63
2023-08-24T00:21:08.089Z,25.64
2023-08-24T00:22:08.073Z,25.64
2023-08-24T00:23:08.056Z,25.64
2023-08-24T00:24:08.063Z,25.64
2023-08-24T00:25:08.049Z,25.64
2023-08-24T00:26:08.018Z,25.64
2023-08-24T00:27:08.003Z,25.64
2023-08-24T00:28:07.984Z,25.63
2023-08-24T00:29:07.984Z,25.63
2023-08-24T00:30:08.017Z,25.63
2023-08-24T00:31:08.044Z,25.62
2023-08-24T00:32:07.936Z,25.61
2023-08-24T00:33:07.987Z,25.60
2023-08-24T00:34:07.933Z,25.59
2023-08-24T00:35:07.955Z,25.57
2023-08-24T00:36:07.978Z,25.55
2023-08-24T00:37:07.898Z,25.54
2023-08-24T00:38:07.906Z,25.53
2023-08-24T00:39:07.867Z,25.53
2023-08-24T00:40:07.872Z,25.52
2023-08-24T00:41:07.861Z,25.52
2023-08-24T00:42:07.825Z,25.51
2023-08-24T00:43:07.806Z,25.50
2023-08-24T00:44:07.796Z,25.50
2023-08-24T00:45:07.768Z,25.50
2023-08-24T00:46:07.780Z,25.50
2023-08-24T00:47:07.776Z,25.50
2023-08-24T00:48:07.788Z,25.49
2023-08-24T00:49:07.761Z,25.47
2023-08-24T00:50:07.703Z,25.46
2023-08-24T00:51:07.688Z,25.44
2023-08-24T00:52:07.689Z,25.43
2023-08-24T00:53:07.662Z,25.41
2023-08-24T00:54:07.677Z,25.40
2023-08-24T00:55:07.659Z,25.39
2023-08-24T00:56:07.615Z,25.38
2023-08-24T00:57:07.625Z,25.37
2023-08-24T00:58:07.594Z,25.37
2023-08-24T00:59:07.592Z,25.36
2023-08-24T01:00:07.579Z,25.35
2023-08-24T01:01:07.628Z,25.35
2023-08-24T01:02:07.605Z,25.35
2023-08-24T01:03:07.591Z,25.36
2023-08-24T01:04:07.533Z,25.36
2023-08-24T01:05:07.527Z,25.36
2023-08-24T01:06:07.497Z,25.36
2023-08-24T01:07:07.482Z,25.36
2023-08-24T01:08:07.468Z,25.35
2023-08-24T01:09:07.473Z,25.35
2023-08-24T01:10:07.475Z,25.34
2023-08-24T01:11:07.435Z,25.33
2023-08-24T01:12:07.408Z,25.33
2023-08-24T01:13:07.404Z,25.32
2023-08-24T01:14:07.384Z,25.32
2023-08-24T01:15:07.394Z,25.32
2023-08-24T01:16:07.356Z,25.32
2023-08-24T01:17:07.368Z,25.32
2023-08-24T01:18:07.388Z,25.32
2023-08-24T01:19:07.315Z,25.31
2023-08-24T01:20:07.378Z,25.31
2023-08-24T01:21:07.315Z,25.30
2023-08-24T01:22:07.275Z,25.30
2023-08-24T01:23:07.266Z,25.29
2023-08-24T01:24:07.286Z,25.29
2023-08-24T01:25:07.302Z,25.29
2023-08-24T01:26:07.226Z,25.29
2023-08-24T01:27:07.221Z,25.29
2023-08-24T01:28:07.217Z,25.30
2023-08-24T01:29:07.189Z,25.30
2023-08-24T01:30:07.177Z,25.30
2023-08-24T01:31:07.214Z,25.31
2023-08-24T01:32:07.142Z,25.31
2023-08-24T01:33:07.179Z,25.32
2023-08-24T01:34:07.125Z,25.32
2023-08-24T01:35:07.125Z,25.32
2023-08-24T01:36:07.109Z,25.32
2023-08-24T01:37:07.090Z,25.32
2023-08-24T01:38:07.064Z,25.31
2023-08-24T01:39:07.062Z,25.31
2023-08-24T01:40:07.049Z,25.30
2023-08-24T01:41:07.046Z,25.29
2023-08-24T01:42:07.030Z,25.27
2023-08-24T01:43:07.011Z,25.26
2023-08-24T01:44:07.003Z,25.24
2023-08-24T01:45:06.996Z,25.23
2023-08-24T01:46:07.044Z,25.21
2023-08-24T01:47:06.962Z,25.20
2023-08-24T01:48:07.039Z,25.20
2023-08-24T01:49:06.943Z,25.19
2023-08-24T01:50:06.936Z,25.19
2023-08-24T01:51:06.917Z,25.18
2023-08-24T01:52:06.904Z,25.17
2023-08-24T01:53:06.879Z,25.17
2023-08-24T01:54:06.862Z,25.16
2023-08-24T01:55:06.869Z,25.16
2023-08-24T01:56:06.845Z,25.15
2023-08-24T01:57:06.876Z,25.15
2023-08-24T01:58:06.817Z,25.15
2023-08-24T01:59:06.804Z,25.14
2023-08-24T02:00:06.791Z,25.13
2023-08-24T02:01:06.856Z,25.12
2023-08-24T02:02:06.757Z,25.10
2023-08-24T02:03:06.834Z,25.07
2023-08-24T02:04:06.742Z,25.04
2023-08-24T02:05:06.721Z,25.02
2023-08-24T02:06:06.721Z,24.99
2023-08-24T02:07:06.697Z,24.97
2023-08-24T02:08:06.679Z,24.95
2023-08-24T02:09:06.692Z,24.93
2023-08-24T02:10:06.688Z,24.92
2023-08-24T02:11:06.647Z,24.90
2023-08-24T02:12:06.627Z,24.89
2023-08-24T02:13:06.631Z,24.88
2023-08-24T02:14:06.609Z,24.88
2023-08-24T02:15:06.596Z,24.87
2023-08-24T02:16:06.773Z,24.87
2023-08-24T02:17:06.561Z,24.87
2023-08-24T02:18:06.575Z,24.87
2023-08-24T02:19:06.553Z,24.87
2023-08-24T02:20:06.532Z,24.88
2023-08-24T02:21:06.506Z,24.88
2023-08-24T02:22:06.516Z,24.88
2023-08-24T02:23:06.484Z,24.89
2023-08-24T02:24:06.490Z,24.90
2023-08-24T02:25:06.465Z,24.90
2023-08-24T02:26:06.472Z,24.90
2023-08-24T02:27:06.439Z,24.90
2023-08-24T02:28:06.418Z,24.89
2023-08-24T02:29:06.495Z,24.88
2023-08-24T02:30:06.385Z,24.87
2023-08-24T02:31:06.450Z,24.86
2023-08-24T02:32:06.409Z,24.85
2023-08-24T02:33:06.378Z,24.85
2023-08-24T02:34:06.344Z,24.84
2023-08-24T02:35:06.340Z,24.84
2023-08-24T02:36:06.318Z,24.84
2023-08-24T02:37:06.328Z,24.83
2023-08-24T02:38:06.286Z,24.83
2023-08-24T02:39:06.303Z,24.82
2023-08-24T02:40:06.282Z,24.82
2023-08-24T02:41:06.266Z,24.82
2023-08-24T02:42:06.250Z,24.81
2023-08-24T02:43:06.216Z,24.80
2023-08-24T02:44:06.219Z,24.78
2023-08-24T02:45:06.185Z,24.75
2023-08-24T02:46:06.196Z,24.73
2023-08-24T02:47:06.174Z,24.71
2023-08-24T02:48:06.254Z,24.69
2023-08-24T02:49:06.130Z,24.67
2023-08-24T02:50:06.160Z,24.65
2023-08-24T02:51:06.251Z,24.62
2023-08-24T02:52:06.091Z,24.61
2023-08-24T02:53:06.100Z,24.60
2023-08-24T02:54:06.052Z,24.60
2023-08-24T02:55:06.032Z,24.59
2023-08-24T02:56:06.039Z,24.59
2023-08-24T02:57:06.011Z,24.59
2023-08-24T02:58:06.008Z,24.58
2023-08-24T02:59:05.984Z,24.57
2023-08-24T03:00:05.983Z,24.56
2023-08-24T03:01:05.988Z,24.55
2023-08-24T03:02:05.951Z,24.55
2023-08-24T03:03:05.986Z,24.54
2023-08-24T03:04:05.956Z,24.53
2023-08-24T03:05:05.911Z,24.52
2023-08-24T03:06:05.886Z,24.52
2023-08-24T03:07:05.872Z,24.51
2023-08-24T03:08:05.895Z,24.51
2023-08-24T03:09:05.855Z,24.50
2023-08-24T03:10:05.862Z,24.49
2023-08-24T03:11:05.825Z,24.48
2023-08-24T03:12:05.814Z,24.47
2023-08-24T03:13:05.794Z,24.46
2023-08-24T03:14:05.789Z,24.46
2023-08-24T03:15:05.774Z,24.45
2023-08-24T03:16:05.772Z,24.45
2023-08-24T03:17:05.805Z,24.44
2023-08-24T03:18:05.741Z,24.44
2023-08-24T03:19:05.726Z,24.42
2023-08-24T03:20:05.720Z,24.41
2023-08-24T03:21:05.716Z,24.41
2023-08-24T03:22:05.688Z,24.40
2023-08-24T03:23:05.677Z,24.39
2023-08-24T03:24:05.654Z,24.38
2023-08-24T03:25:05.642Z,24.37
2023-08-24T03:26:05.634Z,24.37
2023-08-24T03:27:05.622Z,24.36
2023-08-24T03:28:05.599Z,24.35
2023-08-24T03:29:05.598Z,24.34
2023-08-24T03:30:05.591Z,24.33
2023-08-24T03:31:05.625Z,24.31
2023-08-24T03:32:05.545Z,24.29
2023-08-24T03:33:05.618Z,24.28
2023-08-24T03:34:05.524Z,24.27
2023-08-24T03:35:05.515Z,24.26
2023-08-24T03:36:05.510Z,24.25
2023-08-24T03:37:05.492Z,24.25
2023-08-24T03:38:05.466Z,24.24
2023-08-24T03:39:05.471Z,24.24
2023-08-24T03:40:05.438Z,24.25
2023-08-24T03:41:05.439Z,24.25
2023-08-24T03:42:05.407Z,24.26
2023-08-24T03:43:05.404Z,24.26
2023-08-24T03:44:05.384Z,24.27
2023-08-24T03:45:05.371Z,24.27
2023-08-24T03:46:05.580Z,24.27
2023-08-24T03:47:11.371Z,24.26
2023-08-24T03:48:05.370Z,24.25
2023-08-24T03:49:06.984Z,24.24
2023-08-24T03:50:05.379Z,24.23
2023-08-24T03:51:05.288Z,24.23
2023-08-24T03:52:05.280Z,24.22
2023-08-24T03:53:05.272Z,24.21
2023-08-24T03:54:05.276Z,24.20
2023-08-24T03:55:05.267Z,24.19
2023-08-24T03:56:05.215Z,24.18
2023-08-24T03:57:05.203Z,24.18
2023-08-24T03:58:05.231Z,24.17
2023-08-24T03:59:05.181Z,24.17
2023-08-24T04:00:05.196Z,24.17
2023-08-24T04:01:05.172Z,24.17
2023-08-24T04:02:05.144Z,24.18
2023-08-24T04:03:05.190Z,24.19
2023-08-24T04:04:05.204Z,24.20
2023-08-24T04:05:05.144Z,24.21
2023-08-24T04:06:05.106Z,24.21
2023-08-24T04:07:05.084Z,24.22
2023-08-24T04:08:05.089Z,24.23
2023-08-24T04:09:05.161Z,24.23
2023-08-24T04:10:05.076Z,24.24
2023-08-24T04:11:05.049Z,24.24
2023-08-24T04:12:05.712Z,24.24
2023-08-24T04:13:05.161Z,24.24
2023-08-24T04:14:05.080Z,24.24
2023-08-24T04:15:05.012Z,24.24
2023-08-24T04:16:05.180Z,24.24
2023-08-24T04:17:04.983Z,24.24
2023-08-24T04:18:05.055Z,24.23
2023-08-24T04:19:04.942Z,24.23
2023-08-24T04:20:04.941Z,24.22
2023-08-24T04:21:04.973Z,24.21
2023-08-24T04:22:04.908Z,24.20
2023-08-24T04:23:07.498Z,24.18
2023-08-24T04:24:04.912Z,24.16
2023-08-24T04:25:04.891Z,24.13
2023-08-24T04:26:04.846Z,24.11
2023-08-24T04:27:04.821Z,24.10
2023-08-24T04:28:04.844Z,24.08
2023-08-24T04:29:04.825Z,24.07
2023-08-24T04:30:04.792Z,24.06
2023-08-24T04:31:04.855Z,24.05
2023-08-24T04:32:04.813Z,24.05
2023-08-24T04:33:04.783Z,24.05
2023-08-24T04:34:04.747Z,24.05
2023-08-24T04:35:04.729Z,24.05
2023-08-24T04:36:04.737Z,24.05
2023-08-24T04:37:04.718Z,24.05
2023-08-24T04:38:04.704Z,24.06
2023-08-24T04:39:04.755Z,24.07
2023-08-24T04:40:04.648Z,24.08
2023-08-24T04:41:04.657Z,24.10
2023-08-24T04:42:04.664Z,24.12
2023-08-24T04:43:04.622Z,24.14
2023-08-24T04:44:04.613Z,24.16
2023-08-24T04:45:04.684Z,24.18
2023-08-24T04:46:04.617Z,24.19
2023-08-24T04:47:04.566Z,24.21
2023-08-24T04:48:04.714Z,24.22
2023-08-24T04:49:04.705Z,24.23
2023-08-24T04:50:04.704Z,24.25
2023-08-24T04:51:04.538Z,24.27
2023-08-24T04:52:04.563Z,24.32
2023-08-24T04:53:04.481Z,24.37
2023-08-24T04:54:04.477Z,24.38
2023-08-24T04:55:04.486Z,24.35
2023-08-24T04:56:04.454Z,24.28
2023-08-24T04:57:04.480Z,24.20
2023-08-24T04:58:04.447Z,24.10
2023-08-24T04:59:04.434Z,24.01
2023-08-24T05:00:04.392Z,23.92
2023-08-24T05:01:04.420Z,23.84
2023-08-24T05:02:05.061Z,23.75
2023-08-24T05:03:04.406Z,23.68
2023-08-24T05:04:04.346Z,23.62
2023-08-24T05:05:04.332Z,23.55
2023-08-24T05:06:04.331Z,23.48
2023-08-24T05:07:04.334Z,23.41
2023-08-24T05:08:04.290Z,23.37
2023-08-24T05:09:04.342Z,23.33
2023-08-24T05:10:04.261Z,23.30
2023-08-24T05:11:04.254Z,23.26
2023-08-24T05:12:04.262Z,23.23
2023-08-24T05:13:04.274Z,23.20
2023-08-24T05:14:04.259Z,23.18
2023-08-24T05:15:04.207Z,23.16
2023-08-24T05:16:04.233Z,23.14
2023-08-24T05:17:04.212Z,23.13
2023-08-24T05:18:04.199Z,23.11
2023-08-24T05:19:04.152Z,23.10
2023-08-24T05:20:04.132Z,23.09
2023-08-24T05:21:04.110Z,23.08
2023-08-24T05:22:04.100Z,23.09
2023-08-24T05:23:04.114Z,23.10
2023-08-24T05:24:04.111Z,23.12
2023-08-24T05:25:04.197Z,23.15
2023-08-24T05:26:04.059Z,23.19
2023-08-24T05:27:04.036Z,23.22
2023-08-24T05:28:04.026Z,23.25
2023-08-24T05:29:04.004Z,23.27
2023-08-24T05:30:04.037Z,23.30
2023-08-24T05:31:05.736Z,23.33
2023-08-24T05:32:04.194Z,23.37
2023-08-24T05:33:04.146Z,23.40
2023-08-24T05:34:04.043Z,23.43
2023-08-24T05:35:03.994Z,23.46
2023-08-24T05:36:03.954Z,23.49
2023-08-24T05:37:03.942Z,23.52
2023-08-24T05:38:03.990Z,23.54
2023-08-24T05:39:06.518Z,23.56
2023-08-24T05:40:05.285Z,23.58
2023-08-24T05:41:03.869Z,23.59
2023-08-24T05:42:03.863Z,23.60
2023-08-24T05:43:03.871Z,23.61
2023-08-24T05:44:03.856Z,23.62
2023-08-24T05:45:03.808Z,23.62
2023-08-24T05:46:03.840Z,23.63
2023-08-24T05:47:03.784Z,23.64
2023-08-24T05:48:03.818Z,23.64
2023-08-24T05:49:03.755Z,23.65
2023-08-24T05:50:03.736Z,23.67
2023-08-24T05:51:03.729Z,23.68
2023-08-24T05:52:03.706Z,23.68
2023-08-24T05:53:03.703Z,23.68
2023-08-24T05:54:03.710Z,23.68
2023-08-24T05:55:03.729Z,23.69
2023-08-24T05:56:03.660Z,23.70
2023-08-24T05:57:03.652Z,23.71
2023-08-24T05:58:03.640Z,23.72
2023-08-24T05:59:06.176Z,23.74
2023-08-24T06:00:03.621Z,23.75
2023-08-24T06:01:03.602Z,23.77
2023-08-24T06:02:03.629Z,23.78
2023-08-24T06:03:03.582Z,23.80
2023-08-24T06:04:03.634Z,23.81
2023-08-24T06:05:03.565Z,23.83
2023-08-24T06:06:03.536Z,23.85
2023-08-24T06:07:03.524Z,23.86
2023-08-24T06:08:03.520Z,23.88
2023-08-24T06:09:03.495Z,23.90
2023-08-24T06:10:03.499Z,23.91
2023-08-24T06:11:03.490Z,23.93
2023-08-24T06:12:03.466Z,23.94
2023-08-24T06:13:03.458Z,23.96
2023-08-24T06:14:03.436Z,23.97
2023-08-24T06:15:03.441Z,23.99
2023-08-24T06:16:03.442Z,24.00
2023-08-24T06:17:03.397Z,24.01
2023-08-24T06:18:03.412Z,24.03
2023-08-24T06:19:03.393Z,24.04
2023-08-24T06:20:03.383Z,24.05
2023-08-24T06:21:03.375Z,24.06
2023-08-24T06:22:03.330Z,24.06
2023-08-24T06:23:03.334Z,24.07
2023-08-24T06:24:03.338Z,24.07
2023-08-24T06:25:03.305Z,24.07
2023-08-24T06:26:03.294Z,24.08
2023-08-24T06:27:03.269Z,24.08
2023-08-24T06:28:03.271Z,24.10
2023-08-24T06:29:03.242Z,24.11
2023-08-24T06:30:03.259Z,24.12
2023-08-24T06:31:03.226Z,24.12
2023-08-24T06:32:03.230Z,24.13
2023-08-24T06:33:03.226Z,24.13
2023-08-24T06:34:03.184Z,24.14
2023-08-24T06:35:03.543Z,24.15
2023-08-24T06:36:03.346Z,24.16
2023-08-24T06:37:03.237Z,24.17
2023-08-24T06:38:03.246Z,24.17
2023-08-24T06:39:03.231Z,24.17
2023-08-24T06:40:03.584Z,24.17
2023-08-24T06:41:03.103Z,24.17
2023-08-24T06:42:03.108Z,24.16
2023-08-24T06:43:03.146Z,24.15
2023-08-24T06:44:03.086Z,24.14
2023-08-24T06:45:03.059Z,24.14
2023-08-24T06:46:03.140Z,24.14
2023-08-24T06:47:05.573Z,24.13
2023-08-24T06:48:03.020Z,24.13
2023-08-24T06:49:03.009Z,24.13
2023-08-24T06:50:03.034Z,24.13
2023-08-24T06:51:02.998Z,24.14
2023-08-24T06:52:02.997Z,24.14
2023-08-24T06:53:03.175Z,24.15
2023-08-24T06:54:02.945Z,24.15
2023-08-24T06:55:02.938Z,24.16
2023-08-24T06:56:02.924Z,24.17
2023-08-24T06:57:02.939Z,24.18
2023-08-24T06:58:03.010Z,24.19
2023-08-24T06:59:09.649Z,24.20
2023-08-24T07:00:02.979Z,24.21
2023-08-24T07:01:03.148Z,24.22
2023-08-24T07:02:02.877Z,24.23
2023-08-24T07:03:02.856Z,24.24
2023-08-24T07:04:02.815Z,24.25
2023-08-24T07:05:02.810Z,24.26
2023-08-24T07:06:02.815Z,24.28
2023-08-24T07:07:02.805Z,24.29
2023-08-24T07:08:02.751Z,24.31
2023-08-24T07:09:02.734Z,24.32
2023-08-24T07:10:02.739Z,24.33
2023-08-24T07:11:02.722Z,24.34
2023-08-24T07:12:02.709Z,24.36
2023-08-24T07:13:02.713Z,24.37
2023-08-24T07:14:02.711Z,24.38
2023-08-24T07:15:02.658Z,24.39
2023-08-24T07:16:02.752Z,24.39
2023-08-24T07:17:02.628Z,24.40
2023-08-24T07:18:02.694Z,24.40
2023-08-24T07:19:02.653Z,24.41
2023-08-24T07:20:02.612Z,24.41
2023-08-24T07:21:02.597Z,24.42
2023-08-24T07:22:02.609Z,24.42
2023-08-24T07:23:02.544Z,24.43
2023-08-24T07:24:02.548Z,24.44
2023-08-24T07:25:04.785Z,24.45
2023-08-24T07:26:02.543Z,24.46
2023-08-24T07:27:02.510Z,24.48
2023-08-24T07:28:02.520Z,24.49
2023-08-24T07:29:02.489Z,24.51
2023-08-24T07:30:02.541Z,24.52
2023-08-24T07:31:02.554Z,24.54
2023-08-24T07:32:02.569Z,24.55
2023-08-24T07:33:02.624Z,24.58
2023-08-24T07:34:02.428Z,24.60
2023-08-24T07:35:02.408Z,24.61
2023-08-24T07:36:02.448Z,24.63
2023-08-24T07:37:02.384Z,24.65
2023-08-24T07:38:02.367Z,24.67
2023-08-24T07:39:02.367Z,24.68
2023-08-24T07:40:02.338Z,24.69
2023-08-24T07:41:02.335Z,24.70
2023-08-24T07:42:02.343Z,24.71
2023-08-24T07:43:02.317Z,24.73
2023-08-24T07:44:02.309Z,24.75
2023-08-24T07:45:02.279Z,24.77
2023-08-24T07:46:02.454Z,24.78
2023-08-24T07:47:02.268Z,24.79
2023-08-24T07:48:02.385Z,24.81
2023-08-24T07:49:02.224Z,24.83
2023-08-24T07:50:02.242Z,24.83
2023-08-24T07:51:02.201Z,24.85
2023-08-24T07:52:02.202Z,24.86
2023-08-24T07:53:02.223Z,24.88
2023-08-24T07:54:02.163Z,24.90
2023-08-24T07:55:02.168Z,24.92
2023-08-24T07:56:02.151Z,24.93
2023-08-24T07:57:02.151Z,24.94
2023-08-24T07:58:02.157Z,24.96
2023-08-24T07:59:02.125Z,24.97
2023-08-24T08:00:02.092Z,24.98
2023-08-24T08:01:02.086Z,24.99
2023-08-24T08:02:02.137Z,25.00
2023-08-24T08:03:03.263Z,25.01
2023-08-24T08:04:02.079Z,25.01
2023-08-24T08:05:02.045Z,25.01
2023-08-24T08:06:02.027Z,25.02
2023-08-24T08:07:02.000Z,25.03
2023-08-24T08:08:02.015Z,25.03
2023-08-24T08:09:02.012Z,25.03
2023-08-24T08:10:01.989Z,25.04
2023-08-24T08:11:01.965Z,25.04
2023-08-24T08:12:01.936Z,25.05
2023-08-24T08:13:01.929Z,25.06
2023-08-24T08:14:01.911Z,25.08
2023-08-24T08:15:01.903Z,25.09
2023-08-24T08:16:01.964Z,25.10
2023-08-24T08:17:01.870Z,25.12
2023-08-24T08:18:01.945Z,25.13
2023-08-24T08:19:01.869Z,25.15
2023-08-24T08:20:01.849Z,25.17
2023-08-24T08:21:01.821Z,25.18
2023-08-24T08:22:01.816Z,25.19
2023-08-24T08:23:01.807Z,25.19
2023-08-24T08:24:01.810Z,25.20
2023-08-24T08:25:01.770Z,25.21
2023-08-24T08:26:01.775Z,25.23
2023-08-24T08:27:01.761Z,25.25
2023-08-24T08:28:01.735Z,25.27
2023-08-24T08:29:01.748Z,25.28
2023-08-24T08:30:01.720Z,25.28
2023-08-24T08:31:01.748Z,25.29
2023-08-24T08:32:01.879Z,25.30
2023-08-24T08:33:01.713Z,25.31
2023-08-24T08:34:01.690Z,25.32
2023-08-24T08:35:01.642Z,25.33
2023-08-24T08:36:01.642Z,25.35
2023-08-24T08:37:01.616Z,25.36
2023-08-24T08:38:01.607Z,25.38
2023-08-24T08:39:01.597Z,25.40
2023-08-24T08:40:01.643Z,25.41
2023-08-24T08:41:01.567Z,25.42
2023-08-24T08:42:01.551Z,25.43
2023-08-24T08:43:01.552Z,25.44
2023-08-24T08:44:01.531Z,25.45
2023-08-24T08:45:01.532Z,25.45
2023-08-24T08:46:01.661Z,25.45
2023-08-24T08:47:01.514Z,25.45
2023-08-24T08:48:01.505Z,25.46
2023-08-24T08:49:01.469Z,25.47
2023-08-24T08:50:01.447Z,25.48
2023-08-24T08:51:01.427Z,25.49
2023-08-24T08:52:01.418Z,25.50
2023-08-24T08:53:01.417Z,25.51
2023-08-24T08:54:01.411Z,25.52
2023-08-24T08:55:01.376Z,25.54
2023-08-24T08:56:01.371Z,25.55
2023-08-24T08:57:01.355Z,25.56
2023-08-24T08:58:01.330Z,25.57
2023-08-24T08:59:01.379Z,25.58
2023-08-24T09:00:01.310Z,25.59
2023-08-24T09:01:01.337Z,25.61
2023-08-24T09:02:01.291Z,25.62
2023-08-24T09:03:01.374Z,25.64
2023-08-24T09:04:01.301Z,25.65
2023-08-24T09:05:01.324Z,25.67
2023-08-24T09:06:01.237Z,25.68
2023-08-24T09:07:01.227Z,25.70
2023-08-24T09:08:01.221Z,25.71
2023-08-24T09:09:01.208Z,25.71
2023-08-24T09:10:01.193Z,25.71
2023-08-24T09:11:01.211Z,25.72
2023-08-24T09:12:01.168Z,25.73
2023-08-24T09:13:01.161Z,25.74
2023-08-24T09:14:01.192Z,25.75
2023-08-24T09:15:01.177Z,25.76
2023-08-24T09:16:01.187Z,25.78
2023-08-24T09:17:01.133Z,25.79
2023-08-24T09:18:01.120Z,25.79
2023-08-24T09:19:01.069Z,25.81
2023-08-24T09:20:01.096Z,25.82
2023-08-24T09:21:01.045Z,25.84
2023-08-24T09:22:01.030Z,25.85
2023-08-24T09:23:01.015Z,25.86
2023-08-24T09:24:01.021Z,25.86
2023-08-24T09:25:01.020Z,25.87
2023-08-24T09:26:01.046Z,25.87
2023-08-24T09:27:00.972Z,25.88
2023-08-24T09:28:00.946Z,25.89
2023-08-24T09:29:00.944Z,25.90
2023-08-24T09:30:00.944Z,25.91
2023-08-24T09:31:00.943Z,25.93
2023-08-24T09:32:00.915Z,25.94
2023-08-24T09:33:00.906Z,25.96
2023-08-24T09:34:00.934Z,25.98
2023-08-24T09:35:00.866Z,26.00
2023-08-24T09:36:00.848Z,26.02
2023-08-24T09:37:00.828Z,26.04
2023-08-24T09:38:00.881Z,26.06
2023-08-24T09:39:00.821Z,26.07
2023-08-24T09:40:00.793Z,26.09
2023-08-24T09:41:00.781Z,26.10
2023-08-24T09:42:00.763Z,26.11
2023-08-24T09:43:00.748Z,26.13
2023-08-24T09:44:00.738Z,26.15
2023-08-24T09:45:00.772Z,26.17
2023-08-24T09:46:00.718Z,26.18
2023-08-24T09:47:57.014Z,27.31
2023-08-24T09:48:57.882Z,26.89
2023-08-24T09:49:57.877Z,26.62
2023-08-24T09:50:57.896Z,26.46
2023-08-24T09:51:57.863Z,26.38
2023-08-24T09:52:57.857Z,26.33
2023-08-24T09:53:57.815Z,26.31
2023-08-24T09:54:57.818Z,26.31
2023-08-24T09:55:57.794Z,26.31
2023-08-24T09:56:57.774Z,26.31
2023-08-24T09:57:57.764Z,26.33
2023-08-24T09:58:57.772Z,26.34
2023-08-24T09:59:57.768Z,26.36
2023-08-24T10:00:57.712Z,26.37
2023-08-24T10:01:57.753Z,26.39
2023-08-24T10:02:57.981Z,26.41
2023-08-24T10:03:57.759Z,26.43
2023-08-24T10:04:57.714Z,26.45
2023-08-24T10:06:00.839Z,26.47
2023-08-24T10:06:57.636Z,26.49
2023-08-24T10:07:57.648Z,26.50
2023-08-24T10:08:57.616Z,26.51
2023-08-24T10:09:57.618Z,26.52
2023-08-24T10:10:57.605Z,26.53
2023-08-24T10:11:57.595Z,26.54
2023-08-24T10:12:57.558Z,26.55
2023-08-24T10:13:57.545Z,26.56
2023-08-24T10:14:57.535Z,26.55
2023-08-24T10:15:57.573Z,26.54
2023-08-24T10:16:57.518Z,26.54
2023-08-24T10:17:57.544Z,26.54
2023-08-24T10:18:57.470Z,26.54
2023-08-24T10:19:57.477Z,26.55
2023-08-24T10:20:57.487Z,26.56
2023-08-24T10:21:57.450Z,26.57
2023-08-24T10:22:57.416Z,26.58
2023-08-24T10:23:57.414Z,26.60
2023-08-24T10:24:57.400Z,26.61
2023-08-24T10:25:57.411Z,26.63
2023-08-24T10:26:57.386Z,26.64
2023-08-24T10:27:57.389Z,26.65
2023-08-24T10:28:57.364Z,26.66
2023-08-24T10:29:57.339Z,26.66
2023-08-24T10:30:57.328Z,26.67
2023-08-24T10:31:57.393Z,26.67
2023-08-24T10:32:57.453Z,26.69
2023-08-24T10:33:57.288Z,26.72
2023-08-24T10:34:57.269Z,26.75
2023-08-24T10:35:57.257Z,26.80
2023-08-24T10:36:57.276Z,26.85
2023-08-24T10:37:57.231Z,26.90
2023-08-24T10:38:57.216Z,26.93
2023-08-24T10:39:57.204Z,26.96
2023-08-24T10:40:57.188Z,26.99
2023-08-24T10:41:57.227Z,27.00
2023-08-24T10:42:57.165Z,27.01
2023-08-24T10:43:57.165Z,27.02
2023-08-24T10:44:57.167Z,27.03
2023-08-24T10:45:57.250Z,27.03
2023-08-24T10:46:57.131Z,27.02
2023-08-24T10:47:57.114Z,27.01
2023-08-24T10:48:57.101Z,27.00
2023-08-24T10:49:57.164Z,27.00
2023-08-24T10:50:57.059Z,27.00
2023-08-24T10:51:57.078Z,27.00
2023-08-24T10:52:57.026Z,27.01
2023-08-24T10:53:57.041Z,27.01
2023-08-24T10:54:57.041Z,27.02
2023-08-24T10:55:56.993Z,27.03
2023-08-24T10:56:56.984Z,27.03
2023-08-24T10:57:56.970Z,27.03
2023-08-24T10:58:56.960Z,27.03
2023-08-24T10:59:56.941Z,27.03
2023-08-24T11:00:56.994Z,27.03
2023-08-24T11:01:56.934Z,27.03
2023-08-24T11:03:00.564Z,27.03
2023-08-24T11:03:56.964Z,27.03
2023-08-24T11:04:56.903Z,27.04
2023-08-24T11:05:56.929Z,27.05
2023-08-24T11:06:56.876Z,27.07
2023-08-24T11:07:56.841Z,27.08
2023-08-24T11:08:56.840Z,27.08
2023-08-24T11:09:56.835Z,27.09
2023-08-24T11:10:56.809Z,27.10
2023-08-24T11:11:56.803Z,27.11
2023-08-24T11:12:56.778Z,27.13
2023-08-24T11:13:56.757Z,27.14
2023-08-24T11:14:56.750Z,27.16
2023-08-24T11:15:56.759Z,27.18
2023-08-24T11:16:56.735Z,27.20
2023-08-24T11:17:56.764Z,27.22
2023-08-24T11:18:56.695Z,27.23
2023-08-24T11:19:56.696Z,27.24
2023-08-24T11:20:56.685Z,27.25
2023-08-24T11:21:56.681Z,27.26
2023-08-24T11:22:56.646Z,27.28
2023-08-24T11:23:56.644Z,27.30
2023-08-24T11:24:56.616Z,27.30
2023-08-24T11:25:56.603Z,27.32
2023-08-24T11:26:56.620Z,27.33
2023-08-24T11:27:56.613Z,27.33
2023-08-24T11:28:56.576Z,27.33
2023-08-24T11:29:56.571Z,27.34
2023-08-24T11:30:56.639Z,27.35
2023-08-24T11:31:56.554Z,27.37
2023-08-24T11:32:56.530Z,27.39
2023-08-24T11:33:56.504Z,27.41
2023-08-24T11:34:56.499Z,27.43
2023-08-24T11:35:56.544Z,27.45
2023-08-24T11:36:56.453Z,27.51
2023-08-24T11:37:56.467Z,27.60
2023-08-24T11:38:56.448Z,27.67
2023-08-24T11:39:56.439Z,27.74
2023-08-24T11:40:56.399Z,27.79
2023-08-24T11:41:56.396Z,27.82
2023-08-24T11:42:56.454Z,27.85
2023-08-24T11:43:57.949Z,27.86
2023-08-24T11:44:56.373Z,27.88
2023-08-24T11:45:56.360Z,27.88
2023-08-24T11:46:56.355Z,27.89
2023-08-24T11:47:56.383Z,27.89
2023-08-24T11:48:56.309Z,27.90
2023-08-24T11:49:56.301Z,27.91
2023-08-24T11:50:56.288Z,27.91
2023-08-24T11:51:56.265Z,27.91
2023-08-24T11:52:56.269Z,27.92
2023-08-24T11:53:56.232Z,27.93
2023-08-24T11:54:56.221Z,27.93
2023-08-24T11:56:05.753Z,27.94
2023-08-24T11:56:56.203Z,27.94
2023-08-24T11:57:56.232Z,27.94
2023-08-24T11:58:56.207Z,27.94
2023-08-24T11:59:56.171Z,27.95
2023-08-24T12:00:56.177Z,27.96
2023-08-24T12:01:56.145Z,27.99
2023-08-24T12:02:56.215Z,28.01
2023-08-24T12:03:56.196Z,28.05
2023-08-24T12:04:56.099Z,28.11
2023-08-24T12:05:56.107Z,28.18
2023-08-24T12:06:56.074Z,28.24
2023-08-24T12:07:56.131Z,28.28
2023-08-24T12:08:56.065Z,28.30
2023-08-24T12:09:56.039Z,28.32
2023-08-24T12:10:56.024Z,28.35
2023-08-24T12:11:56.013Z,28.38
2023-08-24T12:12:56.003Z,28.40
2023-08-24T12:13:55.999Z,28.42
2023-08-24T12:14:55.965Z,28.44
2023-08-24T12:15:55.967Z,28.46
2023-08-24T12:16:55.968Z,28.48
2023-08-24T12:17:55.957Z,28.50
2023-08-24T12:18:55.925Z,28.52
2023-08-24T12:19:55.925Z,28.54
2023-08-24T12:20:55.906Z,28.54
2023-08-24T12:21:55.919Z,28.53
2023-08-24T12:22:55.867Z,28.51
2023-08-24T12:23:55.869Z,28.49
2023-08-24T12:24:55.849Z,28.49
2023-08-24T12:25:55.835Z,28.49
2023-08-24T12:26:55.809Z,28.48
2023-08-24T12:27:55.813Z,28.47
2023-08-24T12:28:55.848Z,28.47
2023-08-24T12:29:55.814Z,28.48
2023-08-24T12:30:55.854Z,28.48
2023-08-24T12:31:55.761Z,28.50
2023-08-24T12:32:55.983Z,28.52
2023-08-24T12:33:55.751Z,28.53
2023-08-24T12:34:55.830Z,28.55
2023-08-24T12:35:55.736Z,28.57
2023-08-24T12:36:56.381Z,28.59
2023-08-24T12:37:55.670Z,28.61
2023-08-24T12:38:55.680Z,28.63
2023-08-24T12:39:55.676Z,28.65
2023-08-24T12:40:55.656Z,28.67
2023-08-24T12:41:55.621Z,28.68
2023-08-24T12:42:55.655Z,28.69
2023-08-24T12:43:55.672Z,28.70
2023-08-24T12:44:55.597Z,28.72
2023-08-24T12:45:55.571Z,28.74
2023-08-24T12:46:55.574Z,28.75
2023-08-24T12:47:55.892Z,28.77
2023-08-24T12:48:56.961Z,28.80
2023-08-24T12:49:55.562Z,28.82
2023-08-24T12:50:55.502Z,28.84
2023-08-24T12:51:55.493Z,28.88
2023-08-24T12:52:55.473Z,28.91